Time;durP1;ratioP1;P1;durP2;ratioP2;P2;SDS_P1;SDS_P2;PMS_P1;PMS_P2;Temp;Humidity;BMP_temperature;BMP_pressure;BME280_temperature;BME280_humidity;BME280_pressure;Samples;Min_cycle;Max_cycle;Signal;HPM_P1;HPM_P2
2023/05/19 00:01:47;;;;;;;10.33;10.03;;;10.70;99.90;;;;;;6228150;22;20259;-78
2023/05/19 00:04:17;;;;;;;10.13;9.83;;;10.70;99.90;;;;;;6233198;23;20206;-78
2023/05/19 00:06:51;;;;;;;10.17;9.87;;;10.70;99.90;;;;;;6235329;23;20223;-79
2023/05/19 00:09:19;;;;;;;10.30;10.00;;;10.70;99.90;;;;;;6232466;22;20191;-78
2023/05/19 00:11:47;;;;;;;10.40;10.10;;;10.70;99.90;;;;;;6229926;22;20226;-78
2023/05/19 00:14:15;;;;;;;10.30;10.00;;;10.70;99.90;;;;;;6228888;23;20306;-78
2023/05/19 00:16:43;;;;;;;10.50;10.20;;;10.70;99.90;;;;;;6228479;22;20195;-78
2023/05/19 00:19:11;;;;;;;10.50;10.20;;;10.70;99.90;;;;;;6227854;23;20281;-78
2023/05/19 00:21:40;;;;;;;10.50;10.20;;;10.70;99.90;;;;;;6232265;23;20224;-78
2023/05/19 00:24:08;;;;;;;10.07;9.77;;;10.70;99.90;;;;;;6231642;22;20281;-79
2023/05/19 00:26:36;;;;;;;10.50;10.20;;;10.70;99.90;;;;;;6230309;23;20234;-78
2023/05/19 00:29:03;;;;;;;10.53;10.23;;;10.70;99.90;;;;;;6229966;23;20247;-79
2023/05/19 00:31:32;;;;;;;10.60;10.30;;;10.70;99.90;;;;;;6229230;23;20253;-78
2023/05/19 00:34:00;;;;;;;10.40;10.10;;;10.70;99.90;;;;;;6235312;23;20226;-78
2023/05/19 00:36:28;;;;;;;10.33;10.03;;;10.70;99.90;;;;;;6234863;22;20209;-78
2023/05/19 00:38:58;;;;;;;10.23;9.93;;;10.60;99.90;;;;;;6233491;23;20227;-78
2023/05/19 00:41:26;;;;;;;10.30;10.00;;;10.70;99.90;;;;;;6231367;23;20230;-79
2023/05/19 00:43:54;;;;;;;10.70;10.40;;;10.70;99.90;;;;;;6229961;23;20207;-77
2023/05/19 00:46:21;;;;;;;10.60;10.30;;;10.70;99.90;;;;;;6228747;23;20683;-80
2023/05/19 00:48:49;;;;;;;10.50;10.20;;;10.70;99.90;;;;;;6228144;23;20202;-78
2023/05/19 00:51:18;;;;;;;10.57;10.27;;;10.70;99.90;;;;;;6227902;23;20191;-79
2023/05/19 00:53:49;;;;;;;10.70;10.40;;;10.70;99.90;;;;;;6228593;23;20250;-78
2023/05/19 00:56:19;;;;;;;10.80;10.50;;;10.70;99.90;;;;;;6230189;23;21151;-78
2023/05/19 00:58:48;;;;;;;10.47;10.17;;;10.70;99.90;;;;;;6228703;23;20262;-78
2023/05/19 01:01:16;;;;;;;10.30;10.00;;;10.80;99.90;;;;;;6227847;23;20226;-79
2023/05/19 01:03:45;;;;;;;10.33;10.03;;;10.80;99.90;;;;;;6228342;23;20320;-80
2023/05/19 01:06:13;;;;;;;10.50;10.20;;;10.70;99.90;;;;;;6228480;23;20250;-78
2023/05/19 01:08:41;;;;;;;10.40;10.10;;;10.80;99.90;;;;;;6228918;23;20211;-78
2023/05/19 01:11:10;;;;;;;10.23;9.93;;;10.80;99.90;;;;;;6227461;23;20335;-78
2023/05/19 01:13:39;;;;;;;10.33;10.03;;;10.70;99.90;;;;;;6228022;23;20203;-78
2023/05/19 01:16:14;;;;;;;10.67;10.37;;;10.60;99.90;;;;;;6228358;23;20285;-78
2023/05/19 01:18:54;;;;;;;10.57;10.27;;;10.60;99.90;;;;;;6228661;23;20214;-79
2023/05/19 01:22:05;;;;;;;10.50;10.20;;;10.60;99.90;;;;;;6228840;22;20191;-79
2023/05/19 01:25:09;;;;;;;10.47;10.17;;;10.60;99.90;;;;;;6234411;23;20207;-78
2023/05/19 01:28:27;;;;;;;10.67;10.37;;;10.50;99.90;;;;;;6228150;23;20199;-78
2023/05/19 01:30:58;;;;;;;10.53;10.23;;;10.50;99.90;;;;;;6227666;23;20191;-78
2023/05/19 01:33:29;;;;;;;10.43;10.13;;;10.50;99.90;;;;;;6227827;23;20282;-80
2023/05/19 01:35:58;;;;;;;10.30;10.00;;;10.50;99.90;;;;;;6228402;23;20282;-79
2023/05/19 01:38:28;;;;;;;10.30;10.00;;;10.50;99.90;;;;;;6228407;23;20264;-79
2023/05/19 01:40:58;;;;;;;10.37;10.07;;;10.50;99.90;;;;;;6229104;23;20194;-79
2023/05/19 01:43:27;;;;;;;10.27;9.97;;;10.50;99.90;;;;;;6228351;23;20281;-79
2023/05/19 01:45:57;;;;;;;10.20;9.90;;;10.50;99.90;;;;;;6228269;23;20206;-79
2023/05/19 01:48:25;;;;;;;10.30;10.00;;;10.50;99.90;;;;;;6228413;22;20199;-78
2023/05/19 01:50:56;;;;;;;10.30;10.00;;;10.50;99.90;;;;;;6228568;23;20222;-78
2023/05/19 01:53:23;;;;;;;10.70;10.40;;;10.50;99.90;;;;;;6228534;22;20218;-78
2023/05/19 01:55:55;;;;;;;10.57;10.27;;;10.50;99.90;;;;;;6228982;23;20199;-78
2023/05/19 01:58:34;;;;;;;10.30;10.00;;;10.50;99.90;;;;;;6228406;23;20205;-78
2023/05/19 02:01:18;;;;;;;10.20;9.90;;;10.50;99.90;;;;;;6228452;23;20269;-78
2023/05/19 02:04:10;;;;;;;10.40;10.10;;;10.40;99.90;;;;;;6228994;23;20213;-80
2023/05/19 02:06:42;;;;;;;10.57;10.27;;;10.40;99.90;;;;;;6228612;22;20203;-78
2023/05/19 02:09:16;;;;;;;10.40;10.10;;;10.40;99.90;;;;;;6229768;23;20214;-79
2023/05/19 02:11:52;;;;;;;10.33;10.03;;;10.50;99.90;;;;;;6228889;23;20194;-78
2023/05/19 02:14:25;;;;;;;10.30;10.00;;;10.50;99.90;;;;;;6234133;23;20206;-78
2023/05/19 02:16:58;;;;;;;10.60;10.30;;;10.50;99.90;;;;;;6237078;23;20191;-77
2023/05/19 02:19:28;;;;;;;10.40;10.10;;;10.50;99.90;;;;;;6247790;22;20198;-78
2023/05/19 02:21:56;;;;;;;10.37;10.07;;;10.50;99.90;;;;;;6247711;23;20195;-78
2023/05/19 02:24:24;;;;;;;10.70;10.40;;;10.60;99.90;;;;;;6233050;23;20211;-79
2023/05/19 02:26:52;;;;;;;10.20;9.90;;;10.60;99.90;;;;;;6230458;23;20199;-79
2023/05/19 02:29:20;;;;;;;10.20;9.90;;;10.60;99.90;;;;;;6229073;23;20256;-79
2023/05/19 02:31:48;;;;;;;10.27;9.97;;;10.60;99.90;;;;;;6228377;23;20199;-78
2023/05/19 02:34:17;;;;;;;10.30;10.00;;;10.50;99.90;;;;;;6228878;23;20209;-78
2023/05/19 02:36:48;;;;;;;10.40;10.10;;;10.50;99.90;;;;;;6231074;23;20207;-79
2023/05/19 02:39:17;;;;;;;10.50;10.20;;;10.50;99.90;;;;;;6231008;23;20206;-79
2023/05/19 02:41:45;;;;;;;10.40;10.10;;;10.50;99.90;;;;;;6229989;22;20285;-78
2023/05/19 02:44:12;;;;;;;10.23;9.93;;;10.50;99.90;;;;;;6228141;22;20246;-78
2023/05/19 02:46:40;;;;;;;10.20;9.90;;;10.50;99.90;;;;;;6228298;23;20206;-78
2023/05/19 02:49:08;;;;;;;10.43;10.13;;;10.50;99.90;;;;;;6228657;23;20238;-78
2023/05/19 02:51:37;;;;;;;10.13;9.83;;;10.50;99.90;;;;;;6228483;23;20241;-78
2023/05/19 02:54:04;;;;;;;10.23;9.93;;;10.40;99.90;;;;;;6228256;23;20202;-79
2023/05/19 02:56:32;;;;;;;10.50;10.20;;;10.40;99.90;;;;;;6228455;23;20312;-78
2023/05/19 02:59:00;;;;;;;10.20;9.90;;;10.40;99.90;;;;;;6227719;23;20207;-78
2023/05/19 03:01:27;;;;;;;10.30;10.00;;;10.40;99.90;;;;;;6228903;22;20191;-78
2023/05/19 03:03:55;;;;;;;10.30;10.00;;;10.40;99.90;;;;;;6229802;22;20207;-78
2023/05/19 03:06:23;;;;;;;10.33;10.03;;;10.50;99.90;;;;;;6236010;23;20205;-78
2023/05/19 03:08:52;;;;;;;10.30;10.00;;;10.50;99.90;;;;;;6233984;23;20213;-79
2023/05/19 03:11:20;;;;;;;10.30;10.00;;;10.50;99.90;;;;;;6232045;23;20195;-79
2023/05/19 03:13:47;;;;;;;10.20;9.90;;;10.50;99.90;;;;;;6229533;23;20203;-79
2023/05/19 03:16:14;;;;;;;10.50;10.20;;;10.50;99.90;;;;;;6228121;23;20286;-78
2023/05/19 03:18:43;;;;;;;10.80;10.50;;;10.50;99.90;;;;;;6228379;23;20310;-78
2023/05/19 03:21:11;;;;;;;10.80;10.50;;;10.50;99.90;;;;;;6228228;22;20205;-79
2023/05/19 03:23:39;;;;;;;10.70;10.40;;;10.50;99.90;;;;;;6228665;23;20211;-79
2023/05/19 03:26:08;;;;;;;10.67;10.37;;;10.50;99.90;;;;;;6227550;23;20290;-78
2023/05/19 03:28:35;;;;;;;10.80;10.50;;;10.50;99.90;;;;;;6228425;23;20246;-78
2023/05/19 03:31:03;;;;;;;10.47;10.17;;;10.50;99.90;;;;;;6228622;23;20202;-79
2023/05/19 03:33:31;;;;;;;10.67;10.37;;;10.50;99.90;;;;;;6228199;23;20207;-79
2023/05/19 03:35:58;;;;;;;10.53;10.23;;;10.50;99.90;;;;;;6228477;23;20227;-79
2023/05/19 03:38:26;;;;;;;10.60;10.30;;;10.60;99.90;;;;;;6227931;22;20250;-78
2023/05/19 03:40:53;;;;;;;10.70;10.40;;;10.60;99.90;;;;;;6228597;23;20262;-78
2023/05/19 03:43:22;;;;;;;10.43;10.13;;;10.60;99.90;;;;;;6228922;23;20242;-79
2023/05/19 03:45:50;;;;;;;10.83;10.53;;;10.60;99.90;;;;;;6228465;23;20184;-78
2023/05/19 03:48:17;;;;;;;10.40;10.10;;;10.60;99.90;;;;;;6228985;23;20195;-79
2023/05/19 03:50:47;;;;;;;10.67;10.37;;;10.60;99.90;;;;;;6230712;23;20218;-79
2023/05/19 03:53:14;;;;;;;10.50;10.20;;;10.60;99.90;;;;;;6229170;23;20217;-79
2023/05/19 03:55:43;;;;;;;10.53;10.23;;;10.60;99.90;;;;;;6234205;23;20242;-78
2023/05/19 03:58:13;;;;;;;10.43;10.13;;;10.60;99.90;;;;;;6226706;23;20202;-79
2023/05/19 04:00:42;;;;;;;10.90;10.60;;;10.60;99.90;;;;;;6227997;23;20277;-78
2023/05/19 04:03:09;;;;;;;10.60;10.30;;;10.70;99.90;;;;;;6227159;23;20286;-79
2023/05/19 04:05:37;;;;;;;10.50;10.20;;;10.70;99.90;;;;;;6228095;22;20258;-79
2023/05/19 04:08:05;;;;;;;10.40;10.10;;;10.70;99.90;;;;;;6229245;23;20195;-78
2023/05/19 04:10:33;;;;;;;10.30;10.00;;;10.70;99.90;;;;;;6228820;23;20193;-78
2023/05/19 04:13:00;;;;;;;10.40;10.10;;;10.80;99.90;;;;;;6228259;23;20230;-79
2023/05/19 04:15:28;;;;;;;10.60;10.30;;;10.80;99.90;;;;;;6228166;23;20186;-79
2023/05/19 04:17:58;;;;;;;10.83;10.53;;;10.80;99.90;;;;;;6228550;23;20248;-78
2023/05/19 04:20:26;;;;;;;10.63;10.33;;;10.80;99.90;;;;;;6228008;23;20199;-78
2023/05/19 04:22:53;;;;;;;10.70;10.40;;;10.80;99.90;;;;;;6228008;22;20725;-79
2023/05/19 04:25:23;;;;;;;10.90;10.60;;;10.80;99.90;;;;;;6228208;23;20195;-79
2023/05/19 04:27:51;;;;;;;10.77;10.47;;;10.90;99.90;;;;;;6228147;22;20206;-79
2023/05/19 04:30:21;;;;;;;10.60;10.30;;;10.90;99.90;;;;;;6228412;23;20202;-78
2023/05/19 04:32:49;;;;;;;10.60;10.30;;;10.90;99.90;;;;;;6228182;23;20222;-79
2023/05/19 04:35:18;;;;;;;10.50;10.20;;;10.90;99.90;;;;;;6227918;23;20216;-78
2023/05/19 04:37:47;;;;;;;10.47;10.17;;;10.90;99.90;;;;;;6228487;23;20199;-79
2023/05/19 04:40:16;;;;;;;10.80;10.50;;;11.00;99.90;;;;;;6228079;23;20210;-79
2023/05/19 04:42:44;;;;;;;10.20;9.90;;;11.00;99.90;;;;;;6228386;23;20199;-78
2023/05/19 04:45:13;;;;;;;10.40;10.10;;;11.10;99.90;;;;;;6234207;23;20199;-79
2023/05/19 04:47:41;;;;;;;10.57;10.27;;;11.10;99.90;;;;;;6227937;23;20217;-79
2023/05/19 04:50:10;;;;;;;10.37;10.07;;;11.20;99.90;;;;;;6227372;22;20198;-79
2023/05/19 04:52:41;;;;;;;10.47;10.17;;;11.20;99.90;;;;;;6227321;22;20230;-78
2023/05/19 04:55:10;;;;;;;10.40;10.10;;;11.20;99.90;;;;;;6226917;23;20211;-79
2023/05/19 04:57:39;;;;;;;10.60;10.30;;;11.30;99.90;;;;;;6225229;23;20207;-76
2023/05/19 05:00:12;;;;;;;10.30;10.00;;;11.40;99.90;;;;;;6226850;23;20214;-78
2023/05/19 05:02:40;;;;;;;10.40;10.10;;;11.40;99.90;;;;;;6232013;23;20191;-77
2023/05/19 05:05:09;;;;;;;10.37;10.07;;;11.50;99.90;;;;;;6236266;22;20198;-78
2023/05/19 05:07:38;;;;;;;10.37;10.07;;;11.50;99.90;;;;;;6236657;23;20195;-78
2023/05/19 05:10:07;;;;;;;10.80;10.50;;;11.60;99.90;;;;;;6238222;23;20658;-77
2023/05/19 05:12:36;;;;;;;10.57;10.27;;;11.70;99.90;;;;;;6234155;23;20282;-79
2023/05/19 05:15:06;;;;;;;10.70;10.40;;;11.70;99.90;;;;;;6228996;23;20231;-79
2023/05/19 05:17:36;;;;;;;10.67;10.37;;;11.80;99.90;;;;;;6228890;23;20258;-78
2023/05/19 05:20:05;;;;;;;11.10;10.80;;;11.80;99.90;;;;;;6231765;23;20447;-79
2023/05/19 05:22:34;;;;;;;10.93;10.63;;;11.80;99.90;;;;;;6233213;23;20222;-80
2023/05/19 05:25:06;;;;;;;10.80;10.50;;;11.90;99.90;;;;;;6232128;23;20255;-80
2023/05/19 05:27:33;;;;;;;10.90;10.60;;;11.90;99.90;;;;;;6232662;23;20202;-79
2023/05/19 05:30:01;;;;;;;10.87;10.57;;;11.90;99.90;;;;;;6232275;22;20226;-80
2023/05/19 05:32:29;;;;;;;10.67;10.37;;;11.90;99.90;;;;;;6232835;23;20287;-80
2023/05/19 05:34:59;;;;;;;10.43;10.13;;;11.90;99.90;;;;;;6238945;22;20179;-81
2023/05/19 05:37:28;;;;;;;10.80;10.50;;;11.80;99.90;;;;;;6242830;23;20205;-81
2023/05/19 05:40:01;;;;;;;10.57;10.27;;;11.80;99.90;;;;;;6239743;22;20195;-81
2023/05/19 05:42:31;;;;;;;10.20;9.90;;;11.90;99.90;;;;;;6239456;23;20175;-81
2023/05/19 05:44:58;;;;;;;10.30;10.00;;;11.80;99.90;;;;;;6237865;23;20238;-81
2023/05/19 05:47:27;;;;;;;10.30;10.00;;;11.90;99.90;;;;;;6238133;23;20191;-80
2023/05/19 05:49:57;;;;;;;10.20;9.90;;;12.00;99.90;;;;;;6236121;23;20202;-80
2023/05/19 05:52:30;;;;;;;10.40;10.10;;;12.10;99.90;;;;;;6235952;23;20252;-81
2023/05/19 05:54:58;;;;;;;10.50;10.20;;;12.30;99.90;;;;;;6234650;23;20215;-80
2023/05/19 05:57:29;;;;;;;10.27;9.97;;;12.40;99.90;;;;;;6239815;22;20195;-81
2023/05/19 05:59:58;;;;;;;10.50;10.20;;;12.60;99.90;;;;;;6237197;23;20197;-81
2023/05/19 06:02:26;;;;;;;10.33;10.03;;;12.70;99.90;;;;;;6243125;23;20195;-82
2023/05/19 06:04:55;;;;;;;10.47;10.17;;;12.80;99.90;;;;;;6242335;23;20211;-81
2023/05/19 06:07:24;;;;;;;10.50;10.20;;;12.90;99.90;;;;;;6244506;22;20195;-81
2023/05/19 06:09:55;;;;;;;10.27;9.97;;;12.90;99.90;;;;;;6246311;23;20191;-81
2023/05/19 06:12:26;;;;;;;10.13;9.83;;;12.80;99.90;;;;;;6247756;23;20183;-80
2023/05/19 06:14:53;;;;;;;10.07;9.77;;;12.80;99.90;;;;;;6242265;23;20202;-81
2023/05/19 06:17:25;;;;;;;10.40;10.10;;;13.00;99.90;;;;;;6230484;23;20195;-81
2023/05/19 06:19:53;;;;;;;10.40;10.10;;;13.00;99.90;;;;;;6231116;23;20215;-80
2023/05/19 06:22:22;;;;;;;10.20;9.90;;;12.90;99.90;;;;;;6231234;22;20211;-81
2023/05/19 06:24:51;;;;;;;10.27;9.97;;;12.90;99.90;;;;;;6234640;22;20203;-81
2023/05/19 06:27:20;;;;;;;10.47;10.17;;;13.00;99.90;;;;;;6233457;22;20198;-81
2023/05/19 06:29:50;;;;;;;10.37;10.07;;;13.10;99.90;;;;;;6229845;23;20211;-80
2023/05/19 06:32:19;;;;;;;10.23;9.93;;;13.10;99.90;;;;;;6230183;23;20223;-80
2023/05/19 06:34:56;;;;;;;10.30;10.00;;;13.10;99.90;;;;;;6230514;23;20211;-81
2023/05/19 06:37:25;;;;;;;10.30;10.00;;;13.20;99.90;;;;;;6230996;23;20198;-80
2023/05/19 06:39:55;;;;;;;10.67;10.37;;;13.40;99.90;;;;;;6230251;23;20293;-81
2023/05/19 06:42:27;;;;;;;10.30;10.00;;;13.50;99.90;;;;;;6229059;23;20183;-79
2023/05/19 06:44:56;;;;;;;10.40;10.10;;;13.60;99.90;;;;;;6229255;23;20195;-79
2023/05/19 06:47:25;;;;;;;10.33;10.03;;;13.70;99.90;;;;;;6229959;23;20206;-80
2023/05/19 06:49:56;;;;;;;10.27;9.97;;;13.80;99.90;;;;;;6229494;23;20199;-79
2023/05/19 06:52:25;;;;;;;10.50;10.20;;;13.90;99.90;;;;;;6229336;22;20195;-80
2023/05/19 06:54:53;;;;;;;10.40;10.10;;;14.00;99.90;;;;;;6228709;23;21080;-79
2023/05/19 06:57:21;;;;;;;10.40;10.10;;;14.20;99.90;;;;;;6229152;23;20195;-78
2023/05/19 06:59:49;;;;;;;10.40;10.10;;;14.10;99.90;;;;;;6228362;23;20281;-79
2023/05/19 07:02:21;;;;;;;10.23;9.93;;;14.20;99.90;;;;;;6229871;23;20231;-80
2023/05/19 07:04:52;;;;;;;10.50;10.20;;;14.30;99.90;;;;;;6230042;23;20198;-80
2023/05/19 07:07:21;;;;;;;10.67;10.37;;;14.50;99.90;;;;;;6229653;23;20281;-79
2023/05/19 07:09:50;;;;;;;10.40;10.10;;;14.50;99.90;;;;;;6228832;23;20191;-79
2023/05/19 07:12:19;;;;;;;10.50;10.20;;;14.60;99.90;;;;;;6229575;23;20239;-79
2023/05/19 07:14:48;;;;;;;10.20;9.90;;;14.70;99.90;;;;;;6236825;22;20214;-79
2023/05/19 07:17:16;;;;;;;10.40;10.10;;;14.80;99.90;;;;;;6229948;23;20287;-81
2023/05/19 07:19:48;;;;;;;10.27;9.97;;;14.70;99.90;;;;;;6228633;23;20203;-78
2023/05/19 07:22:18;;;;;;;10.40;10.10;;;14.60;99.90;;;;;;6228480;23;20187;-78
2023/05/19 07:24:49;;;;;;;10.20;9.90;;;14.50;99.90;;;;;;6229171;22;20605;-78
2023/05/19 07:27:17;;;;;;;10.45;10.15;;;14.60;99.90;;;;;;6229375;23;20187;-79
2023/05/19 07:29:45;;;;;;;10.50;10.20;;;14.70;99.90;;;;;;6229272;22;20849;-79
2023/05/19 07:32:13;;;;;;;10.38;10.07;;;14.90;99.90;;;;;;6228688;23;20214;-79
2023/05/19 07:34:41;;;;;;;10.55;10.25;;;15.20;99.90;;;;;;6228454;23;20203;-79
2023/05/19 07:37:09;;;;;;;10.68;10.38;;;15.40;99.90;;;;;;6229336;23;20222;-79
2023/05/19 07:39:37;;;;;;;10.30;10.00;;;15.60;99.90;;;;;;6230065;23;20273;-78
2023/05/19 07:42:06;;;;;;;10.40;10.10;;;15.70;99.90;;;;;;6229900;23;20203;-78
2023/05/19 07:44:34;;;;;;;10.32;10.02;;;15.90;99.90;;;;;;6229165;23;20230;-78
2023/05/19 07:47:02;;;;;;;10.40;10.10;;;15.90;99.90;;;;;;6229689;23;20237;-80
2023/05/19 07:49:30;;;;;;;10.30;10.00;;;16.00;99.90;;;;;;6229306;23;20212;-79
2023/05/19 07:52:01;;;;;;;10.60;10.30;;;16.00;99.90;;;;;;6229182;23;20207;-80
2023/05/19 07:54:29;;;;;;;10.48;10.18;;;15.90;99.90;;;;;;6228567;23;20221;-78
2023/05/19 07:56:57;;;;;;;10.32;10.02;;;16.00;99.90;;;;;;6230376;23;20194;-78
2023/05/19 07:59:26;;;;;;;10.40;10.10;;;16.00;99.90;;;;;;6230332;23;20191;-79
2023/05/19 08:01:53;;;;;;;10.32;10.02;;;16.10;99.90;;;;;;6231960;23;20199;-78
2023/05/19 08:04:21;;;;;;;10.40;10.10;;;16.20;99.90;;;;;;6235766;23;20214;-78
2023/05/19 08:06:51;;;;;;;10.38;10.07;;;16.30;99.90;;;;;;6240697;23;20222;-78
2023/05/19 08:09:20;;;;;;;10.50;10.20;;;16.40;99.90;;;;;;6234260;23;20191;-79
2023/05/19 08:11:50;;;;;;;10.38;10.07;;;16.60;99.90;;;;;;6232370;23;20270;-79
2023/05/19 08:14:21;;;;;;;10.18;9.88;;;16.70;99.90;;;;;;6230511;22;20733;-78
2023/05/19 08:16:51;;;;;;;9.90;9.60;;;16.80;99.90;;;;;;6230567;23;20198;-79
2023/05/19 08:19:19;;;;;;;10.18;9.88;;;16.70;99.90;;;;;;6229314;23;20277;-80
2023/05/19 08:21:48;;;;;;;10.30;10.00;;;16.60;99.90;;;;;;6229685;23;20250;-79
2023/05/19 08:24:17;;;;;;;10.20;9.90;;;16.60;99.90;;;;;;6229664;23;20265;-79
2023/05/19 08:26:46;;;;;;;10.25;9.95;;;16.50;99.90;;;;;;6230264;23;20209;-79
2023/05/19 08:29:13;;;;;;;10.30;10.00;;;16.40;99.90;;;;;;6228970;23;20230;-78
2023/05/19 08:31:43;;;;;;;10.50;10.20;;;16.40;99.90;;;;;;6229611;23;20247;-79
2023/05/19 08:34:12;;;;;;;10.50;10.20;;;16.40;99.90;;;;;;6229288;23;20293;-79
2023/05/19 08:36:40;;;;;;;10.50;10.20;;;16.20;99.90;;;;;;6229578;23;20191;-78
2023/05/19 08:39:08;;;;;;;10.40;10.10;;;16.20;99.90;;;;;;6229163;23;20195;-79
2023/05/19 08:41:35;;;;;;;10.55;10.25;;;16.10;99.90;;;;;;6229245;22;20195;-79
2023/05/19 08:44:04;;;;;;;10.68;10.38;;;16.00;99.90;;;;;;6230604;22;20277;-78
2023/05/19 08:46:33;;;;;;;10.45;10.15;;;16.00;99.90;;;;;;6231589;23;20195;-79
2023/05/19 08:49:12;;;;;;;10.40;10.10;;;16.00;99.90;;;;;;6230440;23;20289;-79
2023/05/19 08:51:52;;;;;;;10.60;10.30;;;15.90;99.90;;;;;;6230768;23;20206;-79
2023/05/19 08:54:21;;;;;;;10.38;10.07;;;16.00;99.90;;;;;;6231839;23;20226;-79
2023/05/19 08:56:49;;;;;;;10.57;10.27;;;16.00;99.90;;;;;;6238467;23;20199;-79
2023/05/19 08:59:19;;;;;;;10.50;10.20;;;16.10;99.90;;;;;;6229792;23;20229;-79
2023/05/19 09:01:48;;;;;;;10.40;10.10;;;16.20;99.90;;;;;;6230347;23;20221;-78
2023/05/19 09:04:17;;;;;;;10.70;10.40;;;16.30;99.90;;;;;;6230336;23;20217;-79
2023/05/19 09:06:47;;;;;;;10.68;10.38;;;16.40;99.90;;;;;;6230394;22;20250;-79
2023/05/19 09:09:16;;;;;;;10.60;10.30;;;16.50;99.90;;;;;;6230590;23;20202;-78
2023/05/19 09:11:46;;;;;;;10.55;10.25;;;16.40;99.90;;;;;;6230785;23;20207;-78
2023/05/19 09:14:15;;;;;;;10.45;10.15;;;16.40;99.90;;;;;;6232075;23;20251;-78
2023/05/19 09:16:48;;;;;;;10.65;10.35;;;16.10;99.90;;;;;;6232819;22;20273;-79
2023/05/19 09:19:16;;;;;;;10.35;10.05;;;16.00;99.90;;;;;;6232634;23;20205;-79
2023/05/19 09:21:45;;;;;;;10.27;9.98;;;16.10;99.90;;;;;;6232065;22;20214;-78
2023/05/19 09:24:13;;;;;;;10.38;10.07;;;16.10;99.90;;;;;;6231672;23;20215;-79
2023/05/19 09:26:42;;;;;;;10.45;10.15;;;16.20;99.90;;;;;;6231073;23;20195;-79
2023/05/19 09:29:13;;;;;;;10.68;10.38;;;16.30;99.90;;;;;;6229412;23;20211;-78
2023/05/19 09:31:50;;;;;;;10.75;10.45;;;16.20;99.90;;;;;;6226550;23;20209;-82
2023/05/19 09:34:19;;;;;;;10.55;10.25;;;16.00;99.90;;;;;;6189557;23;20179;-82
2023/05/19 09:36:52;;;;;;;10.60;10.30;;;16.20;99.90;;;;;;6190424;23;20183;-83
2023/05/19 09:39:21;;;;;;;10.57;10.27;;;16.20;99.90;;;;;;6190297;23;20235;-82
2023/05/19 09:41:57;;;;;;;10.48;10.18;;;16.30;99.90;;;;;;6190199;23;20220;-83
2023/05/19 09:44:29;;;;;;;10.20;9.90;;;16.20;99.90;;;;;;6190032;23;20219;-82
2023/05/19 09:46:58;;;;;;;10.30;10.00;;;16.00;99.90;;;;;;6188942;23;20188;-85
2023/05/19 09:49:37;;;;;;;10.38;10.07;;;15.90;99.90;;;;;;6182036;23;20227;-85
2023/05/19 09:52:12;;;;;;;10.65;10.35;;;16.00;99.90;;;;;;6180405;23;20200;-85
2023/05/19 09:54:41;;;;;;;10.70;10.40;;;16.10;99.90;;;;;;6176897;23;20192;-85
2023/05/19 09:57:11;;;;;;;10.40;10.10;;;16.20;99.90;;;;;;6172013;23;20220;-85
2023/05/19 09:59:40;;;;;;;10.30;10.00;;;16.10;99.90;;;;;;6170811;23;20192;-85
2023/05/19 10:02:20;;;;;;;10.50;10.20;;;16.00;99.90;;;;;;6171129;23;20232;-85
2023/05/19 10:04:49;;;;;;;10.32;10.02;;;16.20;99.90;;;;;;6171613;23;20260;-85
2023/05/19 10:07:25;;;;;;;10.40;10.10;;;16.50;99.90;;;;;;6171418;23;20318;-85
2023/05/19 10:09:57;;;;;;;10.63;10.32;;;16.70;99.90;;;;;;6170583;23;20203;-85
2023/05/19 10:12:36;;;;;;;10.55;10.25;;;17.10;99.90;;;;;;6171123;23;20244;-85
2023/05/19 10:15:06;;;;;;;10.38;10.07;;;17.40;99.90;;;;;;6171236;23;20189;-85
2023/05/19 10:17:36;;;;;;;10.70;10.40;;;17.40;99.90;;;;;;6171393;23;20263;-85
2023/05/19 10:20:05;;;;;;;10.82;10.52;;;17.40;99.90;;;;;;6170914;23;20192;-86
2023/05/19 10:22:35;;;;;;;10.65;10.35;;;17.30;99.90;;;;;;6170415;23;20240;-85
2023/05/19 10:25:03;;;;;;;10.40;10.10;;;17.30;99.90;;;;;;6171420;23;20243;-85
2023/05/19 10:27:33;;;;;;;10.68;10.38;;;17.50;99.90;;;;;;6171457;23;20207;-86
2023/05/19 10:30:10;;;;;;;11.00;10.70;;;17.60;99.90;;;;;;6174180;23;20192;-86
2023/05/19 10:32:40;;;;;;;11.00;10.70;;;17.90;99.90;;;;;;6181637;23;20192;-84
2023/05/19 10:35:53;;;;;;;10.80;10.50;;;18.00;99.90;;;;;;6174712;23;20196;-86
2023/05/19 10:38:42;;;;;;;10.63;10.32;;;18.00;99.90;;;;;;6135871;23;20204;-86
2023/05/19 10:41:18;;;;;;;10.80;10.50;;;18.10;99.90;;;;;;6173540;23;20208;-87
2023/05/19 10:44:07;;;;;;;10.65;10.35;;;18.30;99.90;;;;;;6172673;23;20267;-86
2023/05/19 10:46:36;;;;;;;10.80;10.50;;;18.70;99.90;;;;;;6176464;23;20216;-86
2023/05/19 10:49:04;;;;;;;10.73;10.43;;;18.90;99.90;;;;;;6189820;23;20200;-84
2023/05/19 10:51:34;;;;;;;10.60;10.30;;;18.70;99.90;;;;;;6189761;23;20256;-85
2023/05/19 10:54:15;;;;;;;10.40;10.10;;;18.70;99.90;;;;;;6189733;23;20188;-84
2023/05/19 10:59:38;;;;;;;10.52;10.23;;;18.60;99.90;;;;;;6173260;23;20192;-86
2023/05/19 11:02:06;;;;;;;11.10;10.80;;;19.00;99.90;;;;;;6172590;23;20310;-84
2023/05/19 11:04:47;;;;;;;11.02;10.73;;;19.40;99.90;;;;;;6172042;23;20196;-84
2023/05/19 11:07:23;;;;;;;11.00;10.70;;;19.90;99.90;;;;;;6172291;23;20200;-84
2023/05/19 11:10:01;;;;;;;10.70;10.40;;;20.20;99.90;;;;;;6172093;23;20199;-87
2023/05/19 11:12:32;;;;;;;10.80;10.50;;;20.30;99.90;;;;;;6172251;23;20203;-85
2023/05/19 11:15:00;;;;;;;10.65;10.35;;;20.00;99.90;;;;;;6171333;23;20196;-85
2023/05/19 11:17:29;;;;;;;10.80;10.50;;;19.70;99.90;;;;;;6171535;23;20200;-85
2023/05/19 11:20:00;;;;;;;10.45;10.15;;;19.30;99.90;;;;;;6171295;23;20228;-84
2023/05/19 11:22:28;;;;;;;10.20;9.90;;;19.00;99.90;;;;;;6172856;23;20794;-84
2023/05/19 11:25:10;;;;;;;10.13;9.82;;;18.70;99.90;;;;;;6177547;23;20200;-85
2023/05/19 11:27:38;;;;;;;10.60;10.30;;;18.70;99.90;;;;;;6174682;23;20220;-84
2023/05/19 11:30:16;;;;;;;10.40;10.10;;;18.90;99.90;;;;;;6175312;23;20192;-85
2023/05/19 11:32:53;;;;;;;10.40;10.10;;;19.20;99.90;;;;;;6172447;23;20240;-84
2023/05/19 11:35:23;;;;;;;10.60;10.30;;;19.40;99.90;;;;;;6184070;23;20183;-83
2023/05/19 11:37:54;;;;;;;10.40;10.10;;;19.50;99.90;;;;;;6190256;23;20180;-81
2023/05/19 11:40:24;;;;;;;10.70;10.40;;;19.90;99.90;;;;;;6190353;23;20194;-80
2023/05/19 11:42:52;;;;;;;10.80;10.50;;;20.50;99.90;;;;;;6190678;23;20188;-81
2023/05/19 11:45:30;;;;;;;10.52;10.23;;;21.00;99.90;;;;;;6190110;23;20181;-83
2023/05/19 11:47:58;;;;;;;10.40;10.10;;;21.10;99.90;;;;;;6189488;23;20176;-82
2023/05/19 11:50:28;;;;;;;10.50;10.20;;;21.10;99.90;;;;;;6176682;23;20199;-84
2023/05/19 11:52:57;;;;;;;10.20;9.90;;;21.20;99.90;;;;;;6172467;23;20211;-86
2023/05/19 11:55:36;;;;;;;10.60;10.30;;;21.60;99.90;;;;;;6170219;23;20231;-84
2023/05/19 11:58:05;;;;;;;10.45;10.15;;;22.00;99.90;;;;;;6169747;23;20192;-84
2023/05/19 12:00:44;;;;;;;10.90;10.60;;;22.30;99.90;;;;;;6169514;23;20196;-85
2023/05/19 12:03:12;;;;;;;10.90;10.60;;;22.30;99.90;;;;;;6170050;23;20205;-85
2023/05/19 12:05:50;;;;;;;11.10;10.80;;;22.50;99.90;;;;;;6170174;23;20198;-84
2023/05/19 12:08:20;;;;;;;11.07;10.77;;;22.70;99.90;;;;;;6169618;23;20195;-84
2023/05/19 12:10:55;;;;;;;10.80;10.50;;;22.70;99.90;;;;;;6170300;23;20196;-85
2023/05/19 12:13:23;;;;;;;11.05;10.75;;;22.70;99.90;;;;;;6170299;23;20203;-84
2023/05/19 12:15:52;;;;;;;11.10;10.80;;;22.70;99.90;;;;;;6170742;23;20263;-84
2023/05/19 12:18:20;;;;;;;10.95;10.65;;;22.80;99.90;;;;;;6170964;23;20200;-84
2023/05/19 12:20:50;;;;;;;10.73;10.43;;;22.50;99.90;;;;;;6171147;23;20263;-85
2023/05/19 12:23:18;;;;;;;10.90;10.60;;;22.30;99.90;;;;;;6174271;23;20207;-84
2023/05/19 12:25:48;;;;;;;10.90;10.60;;;21.90;99.90;;;;;;6171612;23;20227;-84
2023/05/19 12:28:29;;;;;;;10.90;10.60;;;21.80;99.90;;;;;;6171365;23;20196;-84
2023/05/19 12:30:57;;;;;;;10.70;10.40;;;22.00;99.90;;;;;;6177226;23;20187;-83
2023/05/19 12:33:25;;;;;;;10.88;10.57;;;22.30;99.90;;;;;;6175407;23;20228;-84
2023/05/19 12:35:54;;;;;;;10.73;10.43;;;22.50;99.90;;;;;;6172934;23;20201;-85
2023/05/19 12:38:24;;;;;;;10.68;10.38;;;22.50;99.90;;;;;;6171825;23;20223;-84
2023/05/19 12:40:53;;;;;;;11.10;10.80;;;22.50;99.90;;;;;;6189941;23;20192;-81
2023/05/19 12:46:12;;;;;;;11.20;10.90;;;22.20;99.90;;;;;;6190632;23;20223;-81
2023/05/19 12:48:41;;;;;;;11.07;10.77;;;22.50;99.90;;;;;;6175251;23;20200;-84
2023/05/19 12:51:09;;;;;;;11.05;10.75;;;22.80;99.90;;;;;;6172951;23;20222;-84